Time;durP1;ratioP1;P1;durP2;ratioP2;P2;SDS_P1;SDS_P2;PMS_P1;PMS_P2;Temp;Humidity;BMP_temperature;BMP_pressure;BME280_temperature;BME280_humidity;BME280_pressure;Samples;Min_cycle;Max_cycle;Signal;HPM_P1;HPM_P2
2022/08/10 00:00:35;;;;;;;6.15;1.25;;;13.10;99.90;;;;;;4972615;28;20027;-75
2022/08/10 00:03:06;;;;;;;5.55;1.38;;;13.30;99.90;;;;;;4975984;28;20460;-77
2022/08/10 00:05:33;;;;;;;;;;;13.30;99.90;;;;;;4976858;28;20431;-77
2022/08/10 00:08:01;;;;;;;4.05;1.10;;;13.30;99.90;;;;;;4976032;28;20368;-76
2022/08/10 00:10:28;;;;;;;5.82;1.38;;;13.40;99.90;;;;;;4977655;28;20383;-75
2022/08/10 00:12:56;;;;;;;5.32;1.25;;;13.70;99.90;;;;;;4977356;28;20019;-74
2022/08/10 00:15:23;;;;;;;4.80;1.02;;;13.40;99.90;;;;;;4975790;28;20033;-75
2022/08/10 00:17:51;;;;;;;6.10;0.93;;;13.50;99.90;;;;;;4977262;28;20029;-76
2022/08/10 00:20:19;;;;;;;7.07;1.25;;;13.70;99.90;;;;;;4977352;28;20026;-76
2022/08/10 00:22:46;;;;;;;5.03;1.10;;;13.70;99.90;;;;;;4975683;28;20444;-76
2022/08/10 00:25:13;;;;;;;3.22;1.08;;;13.90;99.90;;;;;;4976992;28;20030;-76
2022/08/10 00:27:41;;;;;;;3.70;1.23;;;14.20;99.90;;;;;;4975384;28;20387;-77
2022/08/10 00:30:09;;;;;;;4.30;1.17;;;14.30;99.90;;;;;;4975341;28;20019;-76
2022/08/10 00:32:36;;;;;;;4.75;1.30;;;14.60;99.90;;;;;;4975367;28;20042;-77
2022/08/10 00:35:04;;;;;;;7.03;1.55;;;14.80;99.90;;;;;;4976753;28;20085;-77
2022/08/10 00:37:31;;;;;;;5.43;0.93;;;14.80;99.90;;;;;;4977306;28;20031;-77
2022/08/10 00:39:59;;;;;;;6.78;1.33;;;14.90;99.90;;;;;;4976738;28;20022;-77
2022/08/10 00:42:26;;;;;;;4.93;1.15;;;15.00;99.90;;;;;;4976582;28;20361;-76
2022/08/10 00:44:54;;;;;;;5.07;1.35;;;15.00;99.90;;;;;;4976288;28;20051;-76
2022/08/10 00:47:21;;;;;;;5.85;1.40;;;15.00;99.90;;;;;;4976745;28;20030;-76
2022/08/10 00:49:49;;;;;;;5.72;1.23;;;15.20;99.90;;;;;;4976541;28;20026;-76
2022/08/10 00:52:18;;;;;;;5.15;1.17;;;15.10;99.90;;;;;;4975390;28;20034;-76
2022/08/10 00:54:47;;;;;;;4.57;1.45;;;15.10;99.90;;;;;;4976693;28;20166;-76
2022/08/10 00:57:15;;;;;;;7.70;1.40;;;15.10;99.90;;;;;;4976490;28;20502;-76
2022/08/10 00:59:43;;;;;;;6.20;1.52;;;14.90;99.90;;;;;;4975082;28;20114;-76
2022/08/10 01:02:10;;;;;;;7.20;1.88;;;15.10;99.90;;;;;;4976161;28;20053;-75
2022/08/10 01:04:37;;;;;;;6.82;1.42;;;15.30;99.90;;;;;;4976130;28;20019;-76
2022/08/10 01:07:05;;;;;;;7.40;1.00;;;15.70;99.90;;;;;;4974788;28;20027;-76
2022/08/10 01:10:15;;;;;;;5.07;1.08;;;16.10;99.90;;;;;;4976455;28;20030;-76
2022/08/10 01:13:24;;;;;;;8.60;1.50;;;16.00;99.90;;;;;;4923889;28;20140;-77
2022/08/10 01:16:14;;;;;;;5.32;0.90;;;16.00;99.90;;;;;;4947592;28;20082;-76
2022/08/10 01:19:18;;;;;;;6.03;1.00;;;15.90;99.90;;;;;;4976093;28;20030;-76
2022/08/10 01:22:22;;;;;;;3.03;0.50;;;16.10;99.90;;;;;;4976076;28;20051;-76
2022/08/10 01:25:10;;;;;;;4.47;1.00;;;15.90;99.90;;;;;;4975740;28;20069;-75
2022/08/10 01:28:00;;;;;;;5.40;0.90;;;16.00;99.90;;;;;;4974395;28;20018;-77
2022/08/10 01:30:30;;;;;;;4.20;1.00;;;16.10;99.90;;;;;;4975819;28;20027;-76
2022/08/10 01:33:00;;;;;;;3.22;0.70;;;16.10;99.90;;;;;;4975646;28;20086;-76
2022/08/10 01:35:49;;;;;;;6.85;0.70;;;16.10;99.90;;;;;;4975449;28;20050;-76
2022/08/10 01:38:23;;;;;;;7.47;1.10;;;16.20;99.90;;;;;;4975814;28;20110;-77
2022/08/10 01:41:07;;;;;;;2.67;0.77;;;16.40;99.90;;;;;;4975522;28;20037;-77
2022/08/10 01:43:56;;;;;;;4.65;0.95;;;16.50;99.90;;;;;;4973988;28;20117;-76
2022/08/10 01:46:26;;;;;;;3.72;0.60;;;16.60;99.90;;;;;;4975077;28;20121;-77
2022/08/10 01:48:55;;;;;;;4.28;0.70;;;17.20;99.90;;;;;;4974250;28;20023;-76
2022/08/10 01:51:32;;;;;;;3.30;0.52;;;17.40;99.90;;;;;;4974523;28;20549;-77
2022/08/10 01:54:11;;;;;;;3.55;0.80;;;17.30;99.90;;;;;;4975025;28;20023;-76
2022/08/10 01:56:45;;;;;;;7.28;1.10;;;17.00;99.90;;;;;;4976162;28;20545;-76
2022/08/10 01:59:23;;;;;;;3.58;0.90;;;16.60;99.90;;;;;;4975812;28;20532;-76
2022/08/10 02:01:55;;;;;;;3.60;1.13;;;16.20;99.90;;;;;;4975669;28;20023;-77
2022/08/10 02:04:24;;;;;;;4.32;0.75;;;16.20;99.90;;;;;;4974198;28;20034;-77
2022/08/10 02:06:54;;;;;;;5.67;1.00;;;16.20;99.90;;;;;;4975516;28;20023;-77
2022/08/10 02:09:29;;;;;;;4.28;0.80;;;16.30;99.90;;;;;;4975483;28;20480;-77
2022/08/10 02:12:05;;;;;;;4.57;0.75;;;16.80;99.90;;;;;;4974041;28;20077;-77
2022/08/10 02:15:00;;;;;;;4.90;1.00;;;17.30;99.90;;;;;;4976183;28;20023;-76
2022/08/10 02:17:34;;;;;;;5.35;1.10;;;17.60;99.90;;;;;;4973816;28;20082;-76
2022/08/10 02:20:18;;;;;;;4.35;1.05;;;17.40;99.90;;;;;;4973554;28;20118;-76
2022/08/10 02:22:53;;;;;;;4.35;0.80;;;17.00;99.90;;;;;;4975000;28;20090;-76
2022/08/10 02:25:23;;;;;;;3.95;0.60;;;16.90;99.90;;;;;;4974642;28;20019;-77
2022/08/10 02:27:51;;;;;;;2.33;0.40;;;16.50;99.90;;;;;;4974786;28;20022;-78
2022/08/10 02:30:19;;;;;;;2.03;0.38;;;16.30;99.90;;;;;;4974830;28;20029;-77
2022/08/10 02:32:47;;;;;;;2.22;0.40;;;16.10;99.90;;;;;;4975158;28;20122;-76
2022/08/10 02:35:15;;;;;;;2.33;0.50;;;16.20;99.90;;;;;;4973355;28;20107;-76
2022/08/10 02:37:48;;;;;;;2.92;0.60;;;16.30;99.90;;;;;;4974567;28;20106;-78
2022/08/10 02:40:15;;;;;;;2.90;0.50;;;15.90;99.90;;;;;;4974796;28;20439;-77
2022/08/10 02:42:51;;;;;;;1.80;0.47;;;15.90;99.90;;;;;;4974633;28;20027;-77
2022/08/10 02:45:25;;;;;;;6.47;0.88;;;16.10;99.90;;;;;;4974413;28;20105;-77
2022/08/10 02:48:00;;;;;;;5.57;1.33;;;15.90;99.90;;;;;;4974652;28;20480;-76
2022/08/10 02:50:31;;;;;;;4.25;0.90;;;15.90;99.90;;;;;;4974524;28;20022;-76
2022/08/10 02:53:08;;;;;;;6.25;1.23;;;16.10;99.90;;;;;;4973084;28;20122;-77
2022/08/10 02:56:07;;;;;;;6.93;1.02;;;16.50;99.90;;;;;;4974245;28;20027;-77
2022/08/10 02:58:52;;;;;;;8.00;1.13;;;16.80;99.90;;;;;;4972888;28;20046;-77
2022/08/10 03:01:25;;;;;;;4.95;0.90;;;17.00;99.90;;;;;;4974454;28;20039;-76
2022/08/10 03:03:58;;;;;;;4.28;1.08;;;17.60;99.90;;;;;;4957046;28;20031;-77
2022/08/10 03:06:32;;;;;;;4.72;1.05;;;18.20;99.90;;;;;;4972780;28;20077;-77
2022/08/10 03:09:01;;;;;;;3.75;0.60;;;18.30;99.90;;;;;;4974193;28;20029;-77
2022/08/10 03:11:31;;;;;;;3.28;0.75;;;17.70;99.90;;;;;;4972892;28;20038;-76
2022/08/10 03:14:00;;;;;;;4.15;0.47;;;17.10;99.90;;;;;;4974325;28;20033;-77
2022/08/10 03:16:32;;;;;;;4.35;0.60;;;16.50;99.90;;;;;;4974294;28;20026;-78
2022/08/10 03:19:02;;;;;;;3.80;0.60;;;16.20;99.90;;;;;;4957298;28;20034;-77
2022/08/10 03:21:31;;;;;;;4.10;1.10;;;15.80;99.90;;;;;;4974144;28;20043;-77
2022/08/10 03:24:04;;;;;;;4.20;0.65;;;15.50;99.90;;;;;;4974332;28;20062;-77
2022/08/10 03:26:32;;;;;;;4.15;0.80;;;15.40;99.90;;;;;;4973165;28;20026;-78
2022/08/10 03:29:02;;;;;;;5.47;0.68;;;15.30;99.90;;;;;;4972991;28;20070;-77
2022/08/10 03:31:30;;;;;;;0.55;0.22;;;15.20;99.90;;;;;;4972988;28;20023;-76
2022/08/10 03:33:59;;;;;;;1.77;0.20;;;15.00;99.90;;;;;;4972947;28;20126;-76
2022/08/10 03:36:27;;;;;;;1.95;0.28;;;15.00;99.90;;;;;;4974257;28;20030;-76
2022/08/10 03:38:55;;;;;;;2.03;0.20;;;15.10;99.90;;;;;;4960018;28;20511;-76
2022/08/10 03:41:42;;;;;;;2.20;0.40;;;15.00;99.90;;;;;;4976425;28;20488;-77
2022/08/10 03:44:12;;;;;;;2.20;0.40;;;15.10;99.90;;;;;;4976294;28;20027;-77
2022/08/10 03:46:42;;;;;;;2.70;0.40;;;15.10;99.90;;;;;;4977572;28;20126;-77
2022/08/10 03:49:11;;;;;;;2.53;0.50;;;15.40;99.90;;;;;;4977794;28;20073;-77
2022/08/10 03:51:40;;;;;;;2.20;0.40;;;15.60;99.90;;;;;;4976315;28;20031;-77
2022/08/10 03:54:08;;;;;;;4.28;0.65;;;15.80;99.90;;;;;;4977801;28;20042;-77
2022/08/10 03:56:37;;;;;;;3.85;0.70;;;16.00;99.90;;;;;;4976601;28;20121;-77
2022/08/10 03:59:06;;;;;;;1.52;0.50;;;16.10;99.90;;;;;;4976831;28;20034;-78
2022/08/10 04:01:34;;;;;;;1.25;0.40;;;16.20;99.90;;;;;;4976290;28;20030;-76
2022/08/10 04:04:01;;;;;;;2.05;0.40;;;16.30;99.90;;;;;;4979310;28;20023;-77
2022/08/10 04:06:29;;;;;;;1.60;0.40;;;16.40;99.90;;;;;;4977278;28;20523;-77
2022/08/10 04:08:57;;;;;;;1.85;0.40;;;16.40;99.90;;;;;;4977596;28;20092;-77
2022/08/10 04:11:25;;;;;;;1.25;0.35;;;16.60;99.90;;;;;;4960306;28;20027;-77
2022/08/10 04:13:52;;;;;;;2.83;0.45;;;16.40;99.90;;;;;;4978277;28;20034;-76
2022/08/10 04:16:19;;;;;;;3.35;0.47;;;16.20;99.90;;;;;;4976563;28;20031;-76
2022/08/10 04:18:47;;;;;;;0.98;0.20;;;16.10;99.90;;;;;;4977558;28;20019;-76
2022/08/10 04:21:38;;;;;;;0.73;0.20;;;16.10;99.90;;;;;;4977444;28;20039;-76
2022/08/10 04:24:09;;;;;;;1.48;0.30;;;16.20;99.90;;;;;;4975733;28;20114;-76
2022/08/10 04:26:36;;;;;;;1.00;0.30;;;16.30;99.90;;;;;;4977634;28;20023;-76
2022/08/10 04:29:04;;;;;;;2.50;0.30;;;16.40;99.90;;;;;;4976772;28;20023;-76
2022/08/10 04:31:33;;;;;;;2.65;0.52;;;16.80;99.90;;;;;;4976912;28;20105;-76
2022/08/10 04:34:02;;;;;;;2.83;0.75;;;16.80;99.90;;;;;;4975083;28;20031;-77
2022/08/10 04:36:31;;;;;;;2.50;0.82;;;16.70;99.90;;;;;;4975150;28;20049;-76
2022/08/10 04:38:58;;;;;;;5.07;0.98;;;16.40;99.90;;;;;;4975155;28;20026;-76
2022/08/10 04:41:27;;;;;;;1.63;0.50;;;16.60;99.90;;;;;;4974960;28;20606;-76
2022/08/10 04:43:54;;;;;;;3.20;0.40;;;16.60;99.90;;;;;;4974958;28;20031;-76
2022/08/10 04:46:22;;;;;;;2.90;0.40;;;16.70;99.90;;;;;;4974821;28;20054;-75
2022/08/10 04:48:49;;;;;;;1.60;0.28;;;16.70;99.90;;;;;;4974757;28;20027;-75
2022/08/10 04:51:17;;;;;;;1.60;0.30;;;16.80;99.90;;;;;;4975018;28;20022;-76
2022/08/10 04:53:49;;;;;;;0.98;0.15;;;16.80;99.90;;;;;;4976198;28;20034;-76
2022/08/10 04:56:16;;;;;;;0.85;0.20;;;16.70;99.90;;;;;;4974888;28;20027;-76
2022/08/10 04:58:48;;;;;;;1.30;0.25;;;16.60;99.90;;;;;;4976150;28;20038;-76
2022/08/10 05:01:15;;;;;;;0.60;0.22;;;16.60;99.90;;;;;;4974867;28;20030;-77
2022/08/10 05:03:42;;;;;;;2.03;0.30;;;16.50;99.90;;;;;;4976063;28;20027;-76
2022/08/10 05:06:10;;;;;;;0.75;0.20;;;16.40;99.90;;;;;;4975850;28;20019;-76
2022/08/10 05:08:37;;;;;;;1.63;0.38;;;16.10;99.90;;;;;;4975170;28;20038;-76
2022/08/10 05:11:05;;;;;;;1.90;0.17;;;15.90;99.90;;;;;;4974700;28;20037;-76
2022/08/10 05:13:33;;;;;;;2.55;0.30;;;15.60;99.90;;;;;;4958859;28;20031;-76
2022/08/10 05:16:00;;;;;;;3.13;0.40;;;15.40;99.90;;;;;;4974855;28;20510;-77
2022/08/10 05:18:27;;;;;;;2.38;0.40;;;15.50;99.90;;;;;;4974708;28;20066;-76
2022/08/10 05:20:55;;;;;;;3.50;0.40;;;15.60;99.90;;;;;;4974399;28;20030;-76
2022/08/10 05:23:22;;;;;;;1.67;0.30;;;15.60;99.90;;;;;;4974458;28;20038;-76
2022/08/10 05:25:49;;;;;;;3.55;0.63;;;15.50;99.90;;;;;;4975605;28;20023;-77
2022/08/10 05:28:17;;;;;;;2.70;0.55;;;15.60;99.90;;;;;;4974466;28;20364;-76
2022/08/10 05:30:44;;;;;;;3.78;0.50;;;15.70;99.90;;;;;;4974508;28;20031;-76
2022/08/10 05:33:11;;;;;;;3.13;0.60;;;15.70;99.90;;;;;;4976389;28;20415;-77
2022/08/10 05:35:39;;;;;;;3.30;0.50;;;15.70;99.90;;;;;;4975953;28;20031;-76
2022/08/10 05:38:09;;;;;;;2.47;0.68;;;15.80;99.90;;;;;;4958372;28;20088;-76
2022/08/10 05:40:39;;;;;;;3.33;1.00;;;15.90;99.90;;;;;;4974203;28;20030;-77
2022/08/10 05:43:08;;;;;;;3.08;0.90;;;16.00;99.90;;;;;;4975816;28;20037;-76
2022/08/10 05:45:35;;;;;;;3.63;0.68;;;15.80;99.90;;;;;;4957766;28;20356;-75
2022/08/10 05:48:03;;;;;;;3.42;0.60;;;15.80;99.90;;;;;;4975395;28;20026;-75
2022/08/10 05:50:31;;;;;;;2.92;0.47;;;15.50;99.90;;;;;;4975480;28;20578;-75
2022/08/10 05:52:58;;;;;;;3.67;0.80;;;15.40;99.90;;;;;;4973758;28;20023;-76
2022/08/10 05:55:29;;;;;;;4.20;0.77;;;15.30;99.90;;;;;;4974370;28;20137;-76
2022/08/10 05:57:58;;;;;;;3.72;1.00;;;15.20;99.90;;;;;;4974230;28;20129;-76
2022/08/10 06:00:27;;;;;;;5.80;0.63;;;15.10;99.90;;;;;;4973051;28;20495;-76
2022/08/10 06:02:59;;;;;;;4.10;1.30;;;15.00;99.90;;;;;;4975093;28;20026;-75
2022/08/10 06:05:30;;;;;;;3.45;0.68;;;14.80;99.90;;;;;;4975550;28;20097;-75
2022/08/10 06:07:59;;;;;;;;;;;14.80;99.90;;;;;;4973910;28;20110;-75
2022/08/10 06:10:29;;;;;;;7.70;0.80;;;14.70;99.90;;;;;;4974923;28;20363;-76
2022/08/10 06:15:45;;;;;;;4.55;0.82;;;14.60;99.90;;;;;;4975383;28;20398;-75
2022/08/10 06:18:16;;;;;;;3.58;0.98;;;14.50;99.90;;;;;;4974726;28;20026;-74
2022/08/10 06:20:46;;;;;;;2.40;0.57;;;14.50;99.90;;;;;;4973492;28;20034;-76
2022/08/10 06:23:14;;;;;;;3.60;0.70;;;14.40;99.90;;;;;;4974491;28;20121;-76
2022/08/10 06:25:42;;;;;;;2.90;0.68;;;14.30;99.90;;;;;;4974690;28;20030;-77
2022/08/10 06:28:13;;;;;;;2.85;0.38;;;14.30;99.90;;;;;;4973451;28;20034;-77
2022/08/10 06:30:42;;;;;;;2.75;0.50;;;14.30;99.90;;;;;;4973457;28;20027;-76
2022/08/10 06:33:11;;;;;;;2.42;0.40;;;14.20;99.90;;;;;;4974939;28;20066;-76
2022/08/10 06:35:40;;;;;;;2.97;0.57;;;14.20;99.90;;;;;;4974897;28;20032;-77
2022/08/10 06:38:09;;;;;;;1.33;0.70;;;14.40;99.90;;;;;;4974913;28;20542;-78
2022/08/10 06:40:42;;;;;;;2.65;0.60;;;14.40;99.90;;;;;;4974177;28;20027;-77
2022/08/10 06:43:13;;;;;;;1.95;0.40;;;14.50;99.90;;;;;;4975159;28;20400;-77
2022/08/10 06:45:59;;;;;;;2.45;0.77;;;14.50;99.90;;;;;;4975355;28;20039;-77
2022/08/10 06:48:33;;;;;;;3.72;0.95;;;14.30;99.90;;;;;;4974036;28;20022;-78
2022/08/10 06:51:05;;;;;;;3.97;0.45;;;14.20;99.90;;;;;;4976547;28;20046;-77
2022/08/10 06:53:53;;;;;;;4.22;0.65;;;14.20;99.90;;;;;;4973647;28;20062;-77
2022/08/10 06:56:25;;;;;;;4.13;0.52;;;14.00;99.90;;;;;;4976264;28;20027;-78
2022/08/10 06:59:10;;;;;;;4.80;0.60;;;13.90;99.90;;;;;;4975895;28;20027;-78
2022/08/10 07:01:40;;;;;;;2.25;0.70;;;13.80;99.90;;;;;;4975903;28;20047;-76
2022/08/10 07:04:33;;;;;;;2.63;0.70;;;13.70;99.90;;;;;;4974631;28;20031;-77
2022/08/10 07:07:03;;;;;;;4.65;1.02;;;13.60;99.90;;;;;;4975281;28;20015;-78
2022/08/10 07:09:34;;;;;;;3.28;1.20;;;13.60;99.90;;;;;;4973561;28;20023;-77
2022/08/10 07:12:04;;;;;;;3.40;0.70;;;13.50;99.90;;;;;;4976687;28;20031;-76
2022/08/10 07:14:33;;;;;;;5.97;2.40;;;13.50;99.90;;;;;;4978372;28;20019;-75
2022/08/10 07:17:01;;;;;;;4.53;1.92;;;13.50;99.90;;;;;;4978367;28;20407;-74
2022/08/10 07:19:31;;;;;;;7.22;2.10;;;13.60;99.90;;;;;;4976984;28;20618;-74
2022/08/10 07:21:58;;;;;;;9.05;2.20;;;13.70;99.90;;;;;;4978234;28;20041;-74
2022/08/10 07:24:26;;;;;;;5.40;1.67;;;13.70;99.90;;;;;;4976603;28;20027;-75
2022/08/10 07:26:57;;;;;;;3.50;1.30;;;13.60;99.90;;;;;;4977881;28;20113;-73
2022/08/10 07:29:29;;;;;;;4.47;1.08;;;13.60;99.90;;;;;;4978126;28;20031;-76
2022/08/10 07:31:59;;;;;;;3.50;0.77;;;13.60;99.90;;;;;;4979916;28;20372;-78
2022/08/10 07:34:29;;;;;;;3.40;0.82;;;13.40;99.90;;;;;;4978866;28;20019;-77
2022/08/10 07:37:05;;;;;;;5.93;1.13;;;13.30;99.90;;;;;;4979674;28;20031;-78
2022/08/10 07:39:41;;;;;;;7.05;2.03;;;13.20;99.90;;;;;;4977977;28;20030;-78
2022/08/10 07:42:11;;;;;;;5.45;1.40;;;13.00;99.90;;;;;;4979888;28;20033;-77
2022/08/10 07:44:41;;;;;;;7.05;2.42;;;12.90;99.90;;;;;;4977231;28;20117;-78
2022/08/10 07:47:15;;;;;;;5.88;2.28;;;12.80;99.90;;;;;;4978042;28;20033;-78
2022/08/10 07:49:44;;;;;;;7.53;2.47;;;12.70;99.90;;;;;;4977170;28;20050;-78
2022/08/10 07:52:12;;;;;;;7.05;1.88;;;12.70;99.90;;;;;;4978355;28;20476;-76
2022/08/10 07:54:45;;;;;;;5.03;1.77;;;12.60;99.90;;;;;;4977931;28;20014;-76
2022/08/10 07:57:24;;;;;;;5.25;1.52;;;12.60;99.90;;;;;;4977675;28;20106;-76
2022/08/10 07:59:57;;;;;;;7.00;1.88;;;12.60;99.90;;;;;;4976265;28;20069;-78
2022/08/10 08:02:33;;;;;;;4.20;1.20;;;12.60;99.90;;;;;;4977720;28;20085;-77
2022/08/10 08:05:08;;;;;;;4.38;1.40;;;12.60;99.90;;;;;;4976067;28;20086;-76
2022/08/10 08:07:38;;;;;;;7.57;1.75;;;12.50;99.90;;;;;;4977374;28;20022;-76
2022/08/10 08:10:10;;;;;;;5.68;1.10;;;12.50;99.90;;;;;;4976410;28;20048;-76
2022/08/10 08:12:39;;;;;;;5.15;1.30;;;12.40;99.90;;;;;;4977393;28;20427;-76
2022/08/10 08:15:10;;;;;;;6.93;2.08;;;12.40;99.90;;;;;;4975854;28;20530;-76
2022/08/10 08:17:40;;;;;;;7.53;2.50;;;12.30;99.90;;;;;;4977135;28;20391;-76
2022/08/10 08:20:08;;;;;;;23.58;9.00;;;12.30;99.90;;;;;;4977113;28;20077;-76
2022/08/10 08:22:37;;;;;;;6.75;2.05;;;12.30;99.90;;;;;;4975456;28;20487;-76
2022/08/10 08:25:05;;;;;;;11.52;2.58;;;12.30;99.90;;;;;;4976626;28;20033;-77
2022/08/10 08:27:34;;;;;;;13.27;4.18;;;12.30;99.90;;;;;;4975789;28;20162;-76
2022/08/10 08:30:02;;;;;;;16.30;5.47;;;12.30;99.90;;;;;;4977303;28;20027;-77
2022/08/10 08:32:32;;;;;;;8.07;3.55;;;12.30;99.90;;;;;;4975792;28;20032;-77
2022/08/10 08:35:03;;;;;;;13.57;4.43;;;12.30;99.90;;;;;;4975969;28;20030;-76
2022/08/10 08:37:32;;;;;;;8.05;2.28;;;12.30;99.90;;;;;;4977144;28;20050;-76
2022/08/10 08:40:03;;;;;;;6.90;2.05;;;12.30;99.90;;;;;;4975519;28;20026;-76
2022/08/10 08:42:33;;;;;;;4.80;1.67;;;12.40;99.90;;;;;;4977043;28;20059;-76
2022/08/10 08:45:33;;;;;;;10.35;4.15;;;12.40;99.90;;;;;;4976534;28;20094;-76
2022/08/10 08:48:37;;;;;;;10.98;2.55;;;12.40;99.90;;;;;;4973295;28;20038;-76
2022/08/10 08:51:25;;;;;;;12.18;3.00;;;12.50;99.90;;;;;;4977185;28;20038;-77
2022/08/10 08:54:07;;;;;;;5.13;1.50;;;12.50;99.90;;;;;;4975446;28;20117;-77
2022/08/10 08:56:41;;;;;;;7.90;2.35;;;12.40;99.90;;;;;;4975330;28;20030;-77
2022/08/10 08:59:41;;;;;;;5.70;2.28;;;12.40;99.90;;;;;;4975309;28;20023;-76
2022/08/10 09:02:55;;;;;;;8.55;2.42;;;12.30;99.90;;;;;;4975110;28;20030;-75
2022/08/10 09:05:31;;;;;;;9.10;2.28;;;12.20;99.90;;;;;;4917735;28;20034;-76
2022/08/10 09:08:19;;;;;;;7.40;1.75;;;12.20;99.90;;;;;;4976308;28;20385;-76
2022/08/10 09:11:09;;;;;;;6.13;1.80;;;12.20;99.90;;;;;;4975829;28;20053;-75
2022/08/10 09:14:02;;;;;;;9.05;3.00;;;12.30;99.90;;;;;;4974829;28;20533;-75
2022/08/10 09:16:32;;;;;;;9.77;2.53;;;12.40;99.90;;;;;;4976156;28;20053;-74
2022/08/10 09:19:00;;;;;;;8.60;2.50;;;12.40;99.90;;;;;;4974597;28;20113;-74
2022/08/10 09:21:56;;;;;;;8.70;3.30;;;12.40;99.90;;;;;;4974724;28;20039;-74
2022/08/10 09:24:41;;;;;;;9.23;2.38;;;12.50;99.90;;;;;;4975960;28;20031;-75
2022/08/10 09:27:20;;;;;;;8.00;2.72;;;12.50;99.90;;;;;;4976009;28;20041;-74
2022/08/10 09:30:01;;;;;;;7.57;2.72;;;12.50;99.90;;;;;;4974700;28;20031;-74
2022/08/10 09:32:43;;;;;;;6.82;2.25;;;12.50;99.90;;;;;;4974658;28;20081;-74
2022/08/10 09:35:31;;;;;;;8.25;2.58;;;12.60;99.90;;;;;;4975150;28;20019;-75
2022/08/10 09:37:59;;;;;;;6.93;2.55;;;12.60;99.90;;;;;;4974519;28;20483;-74
2022/08/10 09:40:48;;;;;;;8.10;2.90;;;12.60;99.90;;;;;;4974246;28;20408;-73
2022/08/10 09:43:40;;;;;;;7.07;2.38;;;12.60;99.90;;;;;;4974225;28;20027;-75
2022/08/10 09:46:32;;;;;;;7.07;3.03;;;12.60;99.90;;;;;;4975361;28;20070;-74
2022/08/10 09:48:59;;;;;;;8.07;2.40;;;12.60;99.90;;;;;;4975587;28;20046;-74
2022/08/10 09:51:44;;;;;;;8.00;2.97;;;12.60;99.90;;;;;;4974319;28;20023;-74
2022/08/10 09:54:38;;;;;;;6.15;2.42;;;12.60;99.90;;;;;;4975578;28;20029;-74
2022/08/10 09:57:21;;;;;;;8.00;3.20;;;12.40;99.90;;;;;;4973869;28;20038;-75
2022/08/10 10:00:19;;;;;;;5.30;2.90;;;12.30;99.90;;;;;;4975450;28;20022;-74
2022/08/10 10:03:13;;;;;;;6.72;3.30;;;12.30;99.90;;;;;;4963381;28;20499;-73
2022/08/10 10:06:20;;;;;;;7.72;2.88;;;12.20;99.90;;;;;;4975175;28;20030;-73
2022/08/10 10:09:18;;;;;;;7.00;3.03;;;12.20;99.90;;;;;;4915457;29;20120;-75
2022/08/10 10:12:06;;;;;;;8.18;3.05;;;12.10;99.90;;;;;;4967158;28;20038;-75
2022/08/10 10:15:22;;;;;;;10.45;3.33;;;12.00;99.90;;;;;;4975280;28;20361;-74
2022/08/10 10:18:07;;;;;;;5.22;2.88;;;12.00;99.90;;;;;;4974635;28;20386;-74
2022/08/10 10:20:38;;;;;;;8.15;3.30;;;11.90;99.90;;;;;;4975350;28;20038;-76
2022/08/10 10:23:32;;;;;;;7.55;3.30;;;11.80;99.90;;;;;;4975427;28;20022;-76
2022/08/10 10:26:13;;;;;;;6.63;3.08;;;11.80;99.90;;;;;;4975390;28;20566;-74
2022/08/10 10:29:07;;;;;;;4.95;3.15;;;11.80;99.90;;;;;;4974762;28;20388;-73
2022/08/10 10:31:44;;;;;;;5.38;3.15;;;11.70;99.90;;;;;;4973183;28;20027;-73
2022/08/10 10:34:55;;;;;;;6.47;3.63;;;11.60;99.90;;;;;;4974850;28;20027;-73
2022/08/10 10:37:24;;;;;;;;;;;11.60;99.90;;;;;;4962330;28;20070;-71
2022/08/10 10:39:54;;;;;;;9.48;3.30;;;11.50;99.90;;;;;;4973274;28;19922;-70
2022/08/10 10:42:59;;;;;;;7.15;3.30;;;11.40;99.90;;;;;;4974567;28;20023;-72
2022/08/10 10:45:51;;;;;;;6.07;2.72;;;11.40;99.90;;;;;;4974253;28;20133;-74
2022/08/10 10:48:42;;;;;;;7.88;3.10;;;11.40;99.90;;;;;;4973056;28;20023;-75
2022/08/10 10:51:18;;;;;;;;;;;11.30;99.90;;;;;;4973933;28;20123;-74
2022/08/10 10:54:01;;;;;;;8.40;3.20;;;11.30;99.90;;;;;;4974685;28;19914;-75
2022/08/10 10:57:06;;;;;;;5.88;2.92;;;11.20;99.90;;;;;;4974636;28;20026;-73
2022/08/10 11:00:01;;;;;;;5.93;2.60;;;11.20;99.90;;;;;;4961784;28;20085;-75
2022/08/10 11:02:48;;;;;;;9.60;2.97;;;11.10;99.90;;;;;;4974227;28;20443;-74
2022/08/10 11:05:30;;;;;;;6.38;3.60;;;11.10;99.90;;;;;;4974260;28;20109;-73
2022/08/10 11:08:16;;;;;;;9.05;3.17;;;11.00;99.90;;;;;;4972953;28;20042;-74
2022/08/10 11:10:46;;;;;;;7.28;3.13;;;10.90;99.90;;;;;;4974320;28;20456;-75
2022/08/10 11:13:39;;;;;;;8.18;3.63;;;10.90;99.90;;;;;;4972980;28;20070;-73
2022/08/10 11:16:20;;;;;;;7.28;3.28;;;10.80;99.90;;;;;;4972899;28;20085;-73
2022/08/10 11:18:50;;;;;;;8.07;2.97;;;10.80;99.90;;;;;;4974940;28;20092;-74
2022/08/10 11:21:20;;;;;;;7.72;3.40;;;10.70;99.90;;;;;;4973118;28;20447;-74
2022/08/10 11:24:29;;;;;;;10.00;3.95;;;10.70;99.90;;;;;;4974680;28;20054;-74
2022/08/10 11:27:24;;;;;;;7.22;3.72;;;10.70;99.90;;;;;;4930895;28;20027;-75
2022/08/10 11:30:05;;;;;;;10.27;3.80;;;10.60;99.90;;;;;;4972883;28;20027;-75
2022/08/10 11:32:43;;;;;;;12.02;5.03;;;10.60;99.90;;;;;;4974528;28;20019;-75
2022/08/10 11:35:30;;;;;;;9.27;4.13;;;10.60;99.90;;;;;;4974884;28;20022;-75
2022/08/10 11:38:42;;;;;;;7.93;4.53;;;10.60;99.90;;;;;;4974654;28;20027;-74
2022/08/10 11:41:33;;;;;;;9.90;4.95;;;10.50;99.90;;;;;;4899045;29;20492;-75
2022/08/10 11:44:25;;;;;;;6.20;3.58;;;10.50;99.90;;;;;;4971954;28;20035;-75
2022/08/10 11:47:06;;;;;;;6.28;3.60;;;10.40;99.90;;;;;;4972590;28;20389;-75
2022/08/10 11:50:05;;;;;;;7.65;3.90;;;10.30;99.90;;;;;;4972463;28;20027;-74
2022/08/10 11:53:19;;;;;;;7.70;3.92;;;10.20;99.90;;;;;;4950351;28;20443;-74
2022/08/10 11:55:57;;;;;;;5.15;3.28;;;10.20;99.90;;;;;;4929875;28;20106;-74
2022/08/10 12:01:19;;;;;;;8.20;3.63;;;10.10;99.90;;;;;;4978076;28;20480;-74
2022/08/10 12:03:47;;;;;;;7.47;3.50;;;10.20;99.90;;;;;;4977636;28;20027;-74
2022/08/10 12:06:19;;;;;;;7.07;3.38;;;10.20;99.90;;;;;;4977274;28;20050;-74
2022/08/10 12:08:49;;;;;;;8.75;3.22;;;10.20;99.90;;;;;;4977612;28;20057;-75
2022/08/10 12:11:21;;;;;;;7.78;3.42;;;10.20;99.90;;;;;;4977281;28;20023;-75
2022/08/10 12:14:00;;;;;;;7.70;3.00;;;10.10;99.90;;;;;;4977236;28;20406;-74
2022/08/10 12:16:29;;;;;;;6.68;2.40;;;10.10;99.90;;;;;;4977343;28;20030;-76
2022/08/10 12:19:03;;;;;;;9.75;3.45;;;10.10;99.90;;;;;;4975821;28;20067;-75
2022/08/10 12:22:04;;;;;;;7.07;3.25;;;10.20;99.90;;;;;;4975918;28;20472;-74
2022/08/10 12:25:04;;;;;;;7.30;3.63;;;10.10;99.90;;;;;;4977215;28;20487;-74
2022/08/10 12:27:44;;;;;;;7.90;3.13;;;10.20;99.90;;;;;;4966270;28;20065;-75
2022/08/10 12:30:15;;;;;;;9.90;3.10;;;10.20;99.90;;;;;;4975762;28;20022;-74
2022/08/10 12:33:01;;;;;;;8.48;3.17;;;10.10;99.90;;;;;;4976751;28;20533;-76
2022/08/10 12:35:54;;;;;;;6.25;3.65;;;10.00;99.90;;;;;;4977233;28;20027;-74
2022/08/10 12:38:31;;;;;;;10.15;3.05;;;10.00;99.90;;;;;;4976609;28;20030;-74
2022/08/10 12:41:03;;;;;;;8.65;3.30;;;10.00;99.90;;;;;;4977021;28;20051;-75
2022/08/10 12:43:45;;;;;;;5.03;3.13;;;9.90;99.90;;;;;;4976677;28;20441;-74
2022/08/10 12:46:18;;;;;;;4.90;2.63;;;9.90;99.90;;;;;;4976477;28;20455;-75
2022/08/10 12:49:14;;;;;;;8.30;3.63;;;10.00;99.90;;;;;;4975223;28;20042;-74
2022/08/10 12:51:47;;;;;;;7.70;3.45;;;10.00;99.90;;;;;;4974873;28;20031;-75
2022/08/10 12:54:21;;;;;;;8.30;3.38;;;10.00;99.90;;;;;;4976803;28;20058;-75
2022/08/10 12:57:13;;;;;;;7.45;3.72;;;9.90;99.90;;;;;;4976235;28;20027;-75
2022/08/10 12:59:47;;;;;;;7.00;3.55;;;9.90;99.90;;;;;;4974721;28;20125;-74
2022/08/10 13:02:28;;;;;;;7.80;3.55;;;9.90;99.90;;;;;;4976029;28;20372;-75
2022/08/10 13:05:06;;;;;;;6.28;3.33;;;10.00;99.90;;;;;;4974838;28;20142;-74
2022/08/10 13:07:37;;;;;;;6.68;3.60;;;10.00;99.90;;;;;;4976181;28;20018;-75
2022/08/10 13:10:13;;;;;;;7.07;3.30;;;9.90;99.90;;;;;;4975821;28;20019;-74
2022/08/10 13:12:45;;;;;;;7.80;3.83;;;9.90;99.90;;;;;;4975953;28;20022;-75
2022/08/10 13:15:31;;;;;;;7.15;3.60;;;9.90;99.90;;;;;;4974735;28;20065;-75
2022/08/10 13:18:01;;;;;;;7.15;3.72;;;9.80;99.90;;;;;;4976277;28;20030;-74
2022/08/10 13:20:34;;;;;;;7.55;3.80;;;9.80;99.90;;;;;;4975964;28;20407;-75
2022/08/10 13:23:09;;;;;;;6.55;3.28;;;9.90;99.90;;;;;;4975834;28;20127;-75
2022/08/10 13:25:39;;;;;;;7.10;3.50;;;9.80;99.90;;;;;;4974521;28;20027;-76
2022/08/10 13:28:08;;;;;;;;;;;9.70;99.90;;;;;;4976635;28;20081;-75
2022/08/10 13:30:37;;;;;;;6.28;3.33;;;9.80;99.90;;;;;;4974429;28;19966;-75
2022/08/10 13:33:07;;;;;;;8.57;4.10;;;9.70;99.90;;;;;;4975740;28;20023;-74
2022/08/10 13:35:35;;;;;;;5.03;3.75;;;9.70;99.90;;;;;;4976260;28;20435;-74
2022/08/10 13:38:05;;;;;;;8.60;4.13;;;9.60;99.90;;;;;;4975677;28;20099;-74